createdAt,value
2017-02-03T00:03:14.699Z,99.99
2017-02-03T00:08:11.493Z,99.99
2017-02-03T00:13:08.023Z,99.99
2017-02-03T00:18:04.686Z,99.99
2017-02-03T00:23:01.744Z,99.99
2017-02-03T00:27:58.254Z,99.99
2017-02-03T00:32:55.118Z,99.99
2017-02-03T00:37:51.522Z,99.99
2017-02-03T00:42:48.829Z,99.99
2017-02-03T00:47:45.609Z,99.99
2017-02-03T00:52:42.222Z,99.99
2017-02-03T00:57:38.562Z,99.99
2017-02-03T01:02:35.302Z,99.99
2017-02-03T01:07:31.942Z,99.99
2017-02-03T01:12:28.593Z,99.99
2017-02-03T01:17:24.838Z,99.99
2017-02-03T01:22:21.360Z,99.99
2017-02-03T01:27:18.170Z,99.99
2017-02-03T01:32:14.463Z,99.99
2017-02-03T01:37:11.794Z,99.99
2017-02-03T01:42:08.461Z,99.99
2017-02-03T01:47:05.405Z,99.99
2017-02-03T01:52:01.572Z,99.99
2017-02-03T01:56:57.865Z,99.99
2017-02-03T02:01:54.201Z,99.99
2017-02-03T02:06:50.537Z,99.99
2017-02-03T02:11:47.257Z,99.99
2017-02-03T02:16:44.321Z,99.99
2017-02-03T02:21:40.859Z,99.99
2017-02-03T02:26:37.370Z,99.99
2017-02-03T02:31:33.820Z,99.99
2017-02-03T02:36:31.231Z,99.99
2017-02-03T02:41:27.704Z,99.99
2017-02-03T02:46:24.265Z,99.99
2017-02-03T02:51:23.998Z,99.99
2017-02-03T02:56:20.094Z,99.99
2017-02-03T03:01:17.301Z,99.99
2017-02-03T03:06:13.694Z,99.99
2017-02-03T03:11:10.364Z,99.99
2017-02-03T03:16:07.091Z,99.99
2017-02-03T03:21:04.430Z,99.99
2017-02-03T03:26:01.328Z,99.99
2017-02-03T03:30:57.737Z,99.99
2017-02-03T03:35:54.304Z,99.99
2017-02-03T03:40:51.115Z,99.99
2017-02-03T03:45:47.700Z,99.99
2017-02-03T03:50:44.420Z,99.99
2017-02-03T03:55:40.857Z,99.99
2017-02-03T04:00:37.733Z,99.99
2017-02-03T04:05:35.632Z,99.99
2017-02-03T04:10:31.924Z,99.99
2017-02-03T04:15:28.373Z,99.99
2017-02-03T04:20:25.025Z,99.99
2017-02-03T04:25:21.275Z,99.99
2017-02-03T04:30:17.887Z,99.99
2017-02-03T04:35:14.409Z,99.99
2017-02-03T04:40:10.983Z,99.99
2017-02-03T04:45:07.866Z,99.99
2017-02-03T04:50:04.528Z,99.99
2017-02-03T04:55:00.916Z,99.99
2017-02-03T04:59:57.281Z,99.99
2017-02-03T05:04:53.748Z,99.99
2017-02-03T05:09:50.599Z,99.99
2017-02-03T05:14:47.200Z,99.99
2017-02-03T05:19:43.844Z,99.99
2017-02-03T05:24:41.092Z,99.99
2017-02-03T05:29:37.585Z,99.99
2017-02-03T05:34:33.864Z,99.99
2017-02-03T05:39:30.474Z,99.99
2017-02-03T05:44:26.784Z,99.99
2017-02-03T05:49:24.797Z,99.99
2017-02-03T05:54:21.421Z,99.99
2017-02-03T05:59:18.102Z,99.99
2017-02-03T06:04:15.666Z,99.99
2017-02-03T06:09:12.179Z,99.99
2017-02-03T06:14:08.851Z,99.99
2017-02-03T06:19:05.286Z,99.99
2017-02-03T06:24:01.789Z,99.99
2017-02-03T06:28:58.223Z,99.99
2017-02-03T06:33:54.706Z,99.99
2017-02-03T06:38:51.634Z,99.99
2017-02-03T06:43:48.085Z,99.99
2017-02-03T06:48:44.635Z,99.99
2017-02-03T06:53:41.126Z,99.99
2017-02-03T06:58:37.785Z,99.99
2017-02-03T07:03:34.420Z,99.99
2017-02-03T07:08:30.946Z,99.99
2017-02-03T07:13:27.645Z,99.99
2017-02-03T07:18:24.045Z,99.99
2017-02-03T07:23:20.305Z,99.99
2017-02-03T07:28:17.210Z,99.99
2017-02-03T07:33:13.751Z,99.99
2017-02-03T07:38:10.184Z,99.99
2017-02-03T07:43:06.607Z,99.99
2017-02-03T07:48:02.956Z,99.99
2017-02-03T07:52:59.444Z,99.99
2017-02-03T07:57:56.795Z,99.99
2017-02-03T08:02:54.318Z,99.99
2017-02-03T08:07:50.906Z,99.99
2017-02-03T08:12:48.399Z,99.99
2017-02-03T08:17:44.905Z,99.99
2017-02-03T08:22:41.595Z,99.99
2017-02-03T08:27:38.117Z,99.99
2017-02-03T08:32:36.035Z,99.99
2017-02-03T08:37:32.197Z,99.99
2017-02-03T08:42:29.670Z,99.99
2017-02-03T08:47:26.313Z,99.99
2017-02-03T08:52:22.630Z,99.99
2017-02-03T08:57:19.024Z,99.99
2017-02-03T09:02:15.847Z,99.99
2017-02-03T09:07:12.624Z,99.99
2017-02-03T09:12:10.172Z,99.99
2017-02-03T09:17:07.190Z,99.99
2017-02-03T09:22:03.917Z,99.99
2017-02-03T09:27:00.790Z,99.99
2017-02-03T09:31:57.249Z,99.99
2017-02-03T09:36:53.689Z,99.99
2017-02-03T09:41:50.151Z,99.99
2017-02-03T09:46:47.243Z,99.99
2017-02-03T09:51:43.592Z,99.99
2017-02-03T09:56:40.252Z,99.99
2017-02-03T10:01:36.573Z,99.99
2017-02-03T10:06:34.087Z,99.99
2017-02-03T10:11:30.762Z,99.99
2017-02-03T10:16:27.648Z,99.99
2017-02-03T10:21:24.163Z,99.99
2017-02-03T10:26:20.733Z,99.99
2017-02-03T10:31:17.233Z,99.99
2017-02-03T10:36:13.735Z,99.99
2017-02-03T10:41:10.289Z,99.99
2017-02-03T10:46:07.445Z,99.99
2017-02-03T10:51:04.212Z,99.99
2017-02-03T10:56:00.602Z,99.99
2017-02-03T11:00:57.327Z,99.99
2017-02-03T11:05:53.984Z,99.99
2017-02-03T11:10:50.617Z,99.99
2017-02-03T11:15:47.103Z,99.99
2017-02-03T11:20:43.766Z,99.99
2017-02-03T11:25:40.511Z,99.99
2017-02-03T11:30:36.707Z,99.99
2017-02-03T11:35:33.322Z,99.99
2017-02-03T11:40:30.094Z,99.99
2017-02-03T11:45:26.722Z,99.99
2017-02-03T11:50:22.902Z,99.99
2017-02-03T11:55:19.853Z,99.99
2017-02-03T12:00:16.766Z,99.99
2017-02-03T12:05:13.210Z,99.99
2017-02-03T12:10:09.892Z,99.99
2017-02-03T12:15:06.476Z,99.99
2017-02-03T12:20:03.090Z,99.99
2017-02-03T12:24:59.616Z,99.99
2017-02-03T12:29:58.586Z,99.99
2017-02-03T12:34:54.699Z,99.99
2017-02-03T12:39:51.186Z,99.99
2017-02-03T12:44:47.791Z,99.99
2017-02-03T12:49:44.247Z,99.99
2017-02-03T12:54:40.917Z,99.99
2017-02-03T12:59:37.815Z,99.99
2017-02-03T13:04:34.620Z,99.99
2017-02-03T13:09:32.095Z,99.99
2017-02-03T13:14:28.633Z,99.99
2017-02-03T13:19:25.626Z,99.99
2017-02-03T13:24:21.982Z,99.99
2017-02-03T13:29:19.000Z,99.99
2017-02-03T13:34:15.721Z,99.99
2017-02-03T13:39:12.658Z,99.99
2017-02-03T13:44:09.513Z,99.99
2017-02-03T13:49:05.740Z,99.99
2017-02-03T13:54:02.385Z,99.99
2017-02-03T13:59:00.300Z,99.99
2017-02-03T14:03:57.526Z,99.99
2017-02-03T14:08:54.150Z,99.99
2017-02-03T14:13:50.875Z,99.99
2017-02-03T14:18:47.662Z,98.80
2017-02-03T14:23:45.249Z,97.32
2017-02-03T14:28:42.515Z,95.94
2017-02-03T14:33:39.679Z,94.51
2017-02-03T14:38:35.777Z,95.46
2017-02-03T14:43:32.695Z,96.27
2017-02-03T14:48:29.136Z,96.94
2017-02-03T14:53:25.309Z,96.51
2017-02-03T14:58:21.715Z,96.51
2017-02-03T15:03:18.097Z,96.17
2017-02-03T15:08:14.598Z,96.12
2017-02-03T15:13:11.011Z,96.51
2017-02-03T15:18:07.889Z,97.56
2017-02-03T15:23:04.327Z,97.65
2017-02-03T15:28:00.563Z,98.22
2017-02-03T15:32:57.065Z,98.41
2017-02-03T15:37:53.574Z,98.51
2017-02-03T15:42:49.980Z,98.55
2017-02-03T15:47:46.294Z,99.13
2017-02-03T15:52:43.273Z,99.22
2017-02-03T15:57:43.129Z,98.84
2017-02-03T16:02:40.344Z,99.51
2017-02-03T16:07:36.629Z,99.89
2017-02-03T16:12:33.070Z,99.99
2017-02-03T16:17:29.416Z,99.99
2017-02-03T16:22:26.434Z,99.99
2017-02-03T16:27:22.741Z,99.99
2017-02-03T16:32:19.293Z,99.99
2017-02-03T16:37:15.580Z,99.99
2017-02-03T16:42:12.254Z,99.99
2017-02-03T16:47:09.080Z,99.99
2017-02-03T16:52:05.813Z,99.99
2017-02-03T16:57:02.288Z,99.99
2017-02-03T17:01:58.791Z,99.99
2017-02-03T17:06:55.120Z,99.99
2017-02-03T17:11:51.892Z,99.99
2017-02-03T17:16:48.111Z,99.99
2017-02-03T17:21:44.686Z,99.99
2017-02-03T17:26:41.647Z,99.99
2017-02-03T17:31:38.097Z,99.99
2017-02-03T17:36:34.440Z,99.99
2017-02-03T17:41:31.480Z,99.99
2017-02-03T17:46:28.905Z,99.99
2017-02-03T17:51:25.702Z,99.99
2017-02-03T17:56:22.033Z,99.99
2017-02-03T18:01:18.488Z,99.99
2017-02-03T18:06:14.763Z,99.99
2017-02-03T18:11:11.285Z,99.99
2017-02-03T18:16:07.883Z,99.99
2017-02-03T18:21:04.186Z,99.99
2017-02-03T18:26:00.823Z,99.99
2017-02-03T18:30:57.163Z,99.99
2017-02-03T18:35:53.623Z,99.99
2017-02-03T18:40:50.125Z,99.99
2017-02-03T18:45:47.425Z,99.99
2017-02-03T18:50:43.641Z,99.99
2017-02-03T18:55:40.585Z,99.99
2017-02-03T19:00:37.357Z,99.99
2017-02-03T19:05:33.744Z,99.99
2017-02-03T19:10:30.347Z,99.99
2017-02-03T19:15:27.027Z,99.99
2017-02-03T19:20:23.505Z,99.99
2017-02-03T19:25:20.148Z,99.99
2017-02-03T19:30:16.590Z,99.99
2017-02-03T19:35:13.704Z,99.99
2017-02-03T19:40:10.261Z,99.99
2017-02-03T19:45:07.061Z,99.99
2017-02-03T19:50:03.429Z,99.99
2017-02-03T19:55:00.043Z,99.99
2017-02-03T19:59:56.869Z,99.99
2017-02-03T20:04:54.346Z,99.99
2017-02-03T20:09:51.029Z,99.99
2017-02-03T20:14:47.491Z,99.99
2017-02-03T20:19:43.929Z,99.99
2017-02-03T20:24:40.466Z,99.99
2017-02-03T20:29:37.030Z,99.99
2017-02-03T20:34:36.471Z,99.99
2017-02-03T20:39:32.110Z,99.99
2017-02-03T20:44:28.712Z,99.99
2017-02-03T20:49:25.153Z,99.99
2017-02-03T20:54:21.605Z,99.99
2017-02-03T20:59:18.196Z,99.99
2017-02-03T21:04:14.990Z,99.99
2017-02-03T21:09:11.155Z,99.99
2017-02-03T21:14:07.119Z,99.99
2017-02-03T21:19:03.575Z,99.99
2017-02-03T21:24:00.034Z,99.99
2017-02-03T21:28:56.467Z,99.99
2017-02-03T21:33:53.261Z,99.99
2017-02-03T21:38:49.756Z,99.99
2017-02-03T21:43:46.996Z,99.99
2017-02-03T21:48:43.890Z,99.99
2017-02-03T21:53:41.275Z,99.99
2017-02-03T21:58:37.846Z,99.99
2017-02-03T22:03:33.853Z,99.99
2017-02-03T22:08:30.126Z,99.99
2017-02-03T22:13:26.895Z,99.99
2017-02-03T22:18:23.226Z,99.99
2017-02-03T22:23:20.318Z,99.99
2017-02-03T22:28:18.834Z,99.99
2017-02-03T22:33:15.660Z,99.99
2017-02-03T22:38:12.312Z,99.99
2017-02-03T22:43:09.204Z,99.99
2017-02-03T22:48:05.893Z,99.99
2017-02-03T22:53:02.373Z,99.99
2017-02-03T22:57:58.765Z,99.99
2017-02-03T23:02:55.392Z,99.99
2017-02-03T23:07:52.391Z,99.99
2017-02-03T23:12:48.836Z,99.99
2017-02-03T23:17:45.085Z,99.99
2017-02-03T23:22:42.375Z,99.99
2017-02-03T23:27:38.802Z,99.99
2017-02-03T23:32:35.294Z,99.99
2017-02-03T23:37:32.795Z,99.99
2017-02-03T23:42:29.812Z,99.99
2017-02-03T23:47:26.185Z,99.99
2017-02-03T23:52:22.654Z,99.99
2017-02-03T23:57:23.256Z,99.99
